sensor_id;sensor_type;location;lat;lon;timestamp;P1;durP1;ratioP1;P2;durP2;ratioP2
70369;SDS011;57790;51.356;-2.906;2024-01-30T00:02:56;1.83;;;0.40;;
70369;SDS011;57790;51.356;-2.906;2024-01-30T00:05:57;2.70;;;0.40;;
70369;SDS011;57790;51.356;-2.906;2024-01-30T00:08:57;2.40;;;0.47;;
70369;SDS011;57790;51.356;-2.906;2024-01-30T00:11:58;1.53;;;0.40;;
70369;SDS011;57790;51.356;-2.906;2024-01-30T00:14:58;2.50;;;0.50;;
70369;SDS011;57790;51.356;-2.906;2024-01-30T00:17:58;1.80;;;0.57;;
70369;SDS011;57790;51.356;-2.906;2024-01-30T00:20:59;1.93;;;0.57;;
70369;SDS011;57790;51.356;-2.906;2024-01-30T00:23:59;2.33;;;0.50;;
70369;SDS011;57790;51.356;-2.906;2024-01-30T00:27:00;4.30;;;0.50;;
70369;SDS011;57790;51.356;-2.906;2024-01-30T00:30:00;4.50;;;0.50;;
70369;SDS011;57790;51.356;-2.906;2024-01-30T00:33:00;5.13;;;1.00;;
70369;SDS011;57790;51.356;-2.906;2024-01-30T00:36:01;4.47;;;0.50;;
70369;SDS011;57790;51.356;-2.906;2024-01-30T00:39:01;3.97;;;0.70;;
70369;SDS011;57790;51.356;-2.906;2024-01-30T00:42:03;4.72;;;0.70;;
70369;SDS011;57790;51.356;-2.906;2024-01-30T00:45:04;6.17;;;1.00;;
70369;SDS011;57790;51.356;-2.906;2024-01-30T00:48:06;5.68;;;0.63;;
70369;SDS011;57790;51.356;-2.906;2024-01-30T00:51:06;7.57;;;0.70;;
70369;SDS011;57790;51.356;-2.906;2024-01-30T00:54:07;6.28;;;0.90;;
70369;SDS011;57790;51.356;-2.906;2024-01-30T00:57:08;6.13;;;1.00;;
70369;SDS011;57790;51.356;-2.906;2024-01-30T01:00:08;6.70;;;0.60;;
70369;SDS011;57790;51.356;-2.906;2024-01-30T01:03:09;7.07;;;0.70;;
70369;SDS011;57790;51.356;-2.906;2024-01-30T01:06:10;5.50;;;0.57;;
70369;SDS011;57790;51.356;-2.906;2024-01-30T01:09:11;5.27;;;0.53;;
70369;SDS011;57790;51.356;-2.906;2024-01-30T01:12:12;3.55;;;0.55;;
70369;SDS011;57790;51.356;-2.906;2024-01-30T01:15:12;2.40;;;0.50;;
70369;SDS011;57790;51.356;-2.906;2024-01-30T01:18:13;3.83;;;0.50;;
70369;SDS011;57790;51.356;-2.906;2024-01-30T01:21:13;4.27;;;0.70;;
70369;SDS011;57790;51.356;-2.906;2024-01-30T01:24:13;3.83;;;1.27;;
70369;SDS011;57790;51.356;-2.906;2024-01-30T01:27:14;3.30;;;0.57;;
70369;SDS011;57790;51.356;-2.906;2024-01-30T01:30:14;5.47;;;0.88;;
70369;SDS011;57790;51.356;-2.906;2024-01-30T01:33:21;3.27;;;0.73;;
70369;SDS011;57790;51.356;-2.906;2024-01-30T01:36:21;4.50;;;0.50;;
70369;SDS011;57790;51.356;-2.906;2024-01-30T01:39:22;2.03;;;0.50;;
70369;SDS011;57790;51.356;-2.906;2024-01-30T01:42:23;5.80;;;0.70;;
70369;SDS011;57790;51.356;-2.906;2024-01-30T01:45:24;5.10;;;0.60;;
70369;SDS011;57790;51.356;-2.906;2024-01-30T01:48:24;3.03;;;0.70;;
70369;SDS011;57790;51.356;-2.906;2024-01-30T01:51:27;5.25;;;1.00;;
70369;SDS011;57790;51.356;-2.906;2024-01-30T01:54:28;4.63;;;0.70;;
70369;SDS011;57790;51.356;-2.906;2024-01-30T01:57:29;5.07;;;0.77;;
70369;SDS011;57790;51.356;-2.906;2024-01-30T02:00:29;4.37;;;1.07;;
70369;SDS011;57790;51.356;-2.906;2024-01-30T02:03:31;2.83;;;0.60;;
70369;SDS011;57790;51.356;-2.906;2024-01-30T02:06:32;1.60;;;0.57;;
70369;SDS011;57790;51.356;-2.906;2024-01-30T02:09:33;4.47;;;0.60;;
70369;SDS011;57790;51.356;-2.906;2024-01-30T02:12:33;3.07;;;0.70;;
70369;SDS011;57790;51.356;-2.906;2024-01-30T02:15:34;2.83;;;0.60;;
70369;SDS011;57790;51.356;-2.906;2024-01-30T02:18:34;4.07;;;0.70;;
70369;SDS011;57790;51.356;-2.906;2024-01-30T02:21:35;4.13;;;0.80;;
70369;SDS011;57790;51.356;-2.906;2024-01-30T02:24:36;3.90;;;0.70;;
70369;SDS011;57790;51.356;-2.906;2024-01-30T02:27:36;4.87;;;0.90;;
70369;SDS011;57790;51.356;-2.906;2024-01-30T02:30:36;3.53;;;0.70;;
70369;SDS011;57790;51.356;-2.906;2024-01-30T02:33:37;5.37;;;0.93;;
70369;SDS011;57790;51.356;-2.906;2024-01-30T02:36:37;6.45;;;0.70;;
70369;SDS011;57790;51.356;-2.906;2024-01-30T02:39:38;3.00;;;0.67;;
70369;SDS011;57790;51.356;-2.906;2024-01-30T02:42:38;3.77;;;0.90;;
70369;SDS011;57790;51.356;-2.906;2024-01-30T02:45:39;6.70;;;0.80;;
70369;SDS011;57790;51.356;-2.906;2024-01-30T02:48:39;4.73;;;0.87;;
70369;SDS011;57790;51.356;-2.906;2024-01-30T02:51:40;3.00;;;0.60;;
70369;SDS011;57790;51.356;-2.906;2024-01-30T02:54:41;4.60;;;0.80;;
70369;SDS011;57790;51.356;-2.906;2024-01-30T02:57:42;3.87;;;0.87;;
70369;SDS011;57790;51.356;-2.906;2024-01-30T03:00:43;5.43;;;0.77;;
70369;SDS011;57790;51.356;-2.906;2024-01-30T03:03:43;3.30;;;0.80;;
70369;SDS011;57790;51.356;-2.906;2024-01-30T03:06:47;3.77;;;0.80;;
70369;SDS011;57790;51.356;-2.906;2024-01-30T03:09:47;4.45;;;0.80;;
70369;SDS011;57790;51.356;-2.906;2024-01-30T03:12:48;4.60;;;0.70;;
70369;SDS011;57790;51.356;-2.906;2024-01-30T03:15:48;3.83;;;0.70;;
70369;SDS011;57790;51.356;-2.906;2024-01-30T03:18:49;4.68;;;0.75;;
70369;SDS011;57790;51.356;-2.906;2024-01-30T03:21:49;5.23;;;0.73;;
70369;SDS011;57790;51.356;-2.906;2024-01-30T03:24:51;5.35;;;0.70;;
70369;SDS011;57790;51.356;-2.906;2024-01-30T03:27:51;3.57;;;0.67;;
70369;SDS011;57790;51.356;-2.906;2024-01-30T03:30:51;3.10;;;1.10;;
70369;SDS011;57790;51.356;-2.906;2024-01-30T03:33:52;2.67;;;0.87;;
70369;SDS011;57790;51.356;-2.906;2024-01-30T03:36:52;3.75;;;0.70;;
70369;SDS011;57790;51.356;-2.906;2024-01-30T03:39:53;3.03;;;0.70;;
70369;SDS011;57790;51.356;-2.906;2024-01-30T03:42:53;2.47;;;0.80;;
70369;SDS011;57790;51.356;-2.906;2024-01-30T03:45:54;3.10;;;0.60;;
70369;SDS011;57790;51.356;-2.906;2024-01-30T03:48:54;3.97;;;0.63;;
70369;SDS011;57790;51.356;-2.906;2024-01-30T03:51:54;4.23;;;0.87;;
70369;SDS011;57790;51.356;-2.906;2024-01-30T03:54:55;2.80;;;0.60;;
70369;SDS011;57790;51.356;-2.906;2024-01-30T03:57:55;3.75;;;0.80;;
70369;SDS011;57790;51.356;-2.906;2024-01-30T04:00:55;4.97;;;0.70;;
70369;SDS011;57790;51.356;-2.906;2024-01-30T04:03:56;3.57;;;0.70;;
70369;SDS011;57790;51.356;-2.906;2024-01-30T04:06:56;2.77;;;0.60;;
70369;SDS011;57790;51.356;-2.906;2024-01-30T04:09:57;4.63;;;0.50;;
70369;SDS011;57790;51.356;-2.906;2024-01-30T04:12:57;2.53;;;0.60;;
70369;SDS011;57790;51.356;-2.906;2024-01-30T04:15:59;2.63;;;0.50;;
70369;SDS011;57790;51.356;-2.906;2024-01-30T04:19:01;4.30;;;0.70;;
70369;SDS011;57790;51.356;-2.906;2024-01-30T04:22:02;2.90;;;0.50;;
70369;SDS011;57790;51.356;-2.906;2024-01-30T04:25:02;4.37;;;0.60;;
70369;SDS011;57790;51.356;-2.906;2024-01-30T04:28:03;6.55;;;0.85;;
70369;SDS011;57790;51.356;-2.906;2024-01-30T04:31:04;4.63;;;0.90;;
70369;SDS011;57790;51.356;-2.906;2024-01-30T04:34:04;3.97;;;0.60;;
70369;SDS011;57790;51.356;-2.906;2024-01-30T04:37:05;4.50;;;0.70;;
70369;SDS011;57790;51.356;-2.906;2024-01-30T04:40:05;3.40;;;0.60;;
70369;SDS011;57790;51.356;-2.906;2024-01-30T04:43:06;3.83;;;0.70;;
70369;SDS011;57790;51.356;-2.906;2024-01-30T04:46:07;3.63;;;0.60;;
70369;SDS011;57790;51.356;-2.906;2024-01-30T04:49:07;3.93;;;0.50;;
70369;SDS011;57790;51.356;-2.906;2024-01-30T04:52:08;3.40;;;0.60;;
70369;SDS011;57790;51.356;-2.906;2024-01-30T04:55:08;4.78;;;0.60;;
70369;SDS011;57790;51.356;-2.906;2024-01-30T04:58:09;3.60;;;0.67;;
70369;SDS011;57790;51.356;-2.906;2024-01-30T05:01:09;3.80;;;0.83;;
70369;SDS011;57790;51.356;-2.906;2024-01-30T05:04:10;6.93;;;0.82;;
70369;SDS011;57790;51.356;-2.906;2024-01-30T05:07:11;6.87;;;0.70;;
70369;SDS011;57790;51.356;-2.906;2024-01-30T05:10:11;4.93;;;1.05;;
70369;SDS011;57790;51.356;-2.906;2024-01-30T05:13:12;3.93;;;0.80;;
70369;SDS011;57790;51.356;-2.906;2024-01-30T05:16:13;4.70;;;1.00;;
70369;SDS011;57790;51.356;-2.906;2024-01-30T05:19:14;4.80;;;1.20;;
70369;SDS011;57790;51.356;-2.906;2024-01-30T05:22:14;11.40;;;1.10;;
70369;SDS011;57790;51.356;-2.906;2024-01-30T05:25:15;11.07;;;1.27;;
70369;SDS011;57790;51.356;-2.906;2024-01-30T05:28:16;8.30;;;1.30;;
70369;SDS011;57790;51.356;-2.906;2024-01-30T05:31:16;5.80;;;0.97;;
70369;SDS011;57790;51.356;-2.906;2024-01-30T05:34:16;11.17;;;1.60;;
70369;SDS011;57790;51.356;-2.906;2024-01-30T05:37:17;7.83;;;1.40;;
70369;SDS011;57790;51.356;-2.906;2024-01-30T05:40:17;8.30;;;1.10;;
70369;SDS011;57790;51.356;-2.906;2024-01-30T05:43:18;9.40;;;1.20;;
70369;SDS011;57790;51.356;-2.906;2024-01-30T05:46:18;9.20;;;1.37;;
70369;SDS011;57790;51.356;-2.906;2024-01-30T05:49:19;7.80;;;1.33;;
70369;SDS011;57790;51.356;-2.906;2024-01-30T05:52:19;7.05;;;1.95;;
70369;SDS011;57790;51.356;-2.906;2024-01-30T05:55:20;9.00;;;1.63;;
70369;SDS011;57790;51.356;-2.906;2024-01-30T05:58:20;9.47;;;1.30;;
70369;SDS011;57790;51.356;-2.906;2024-01-30T06:01:21;9.68;;;1.52;;
70369;SDS011;57790;51.356;-2.906;2024-01-30T06:04:22;7.97;;;1.57;;
70369;SDS011;57790;51.356;-2.906;2024-01-30T06:07:22;7.57;;;1.10;;
70369;SDS011;57790;51.356;-2.906;2024-01-30T06:10:22;8.00;;;1.57;;
70369;SDS011;57790;51.356;-2.906;2024-01-30T06:13:23;9.10;;;1.48;;
70369;SDS011;57790;51.356;-2.906;2024-01-30T06:16:23;11.07;;;1.77;;
70369;SDS011;57790;51.356;-2.906;2024-01-30T06:19:24;7.00;;;1.60;;
70369;SDS011;57790;51.356;-2.906;2024-01-30T06:22:24;7.50;;;1.80;;
70369;SDS011;57790;51.356;-2.906;2024-01-30T06:25:24;7.47;;;1.70;;
70369;SDS011;57790;51.356;-2.906;2024-01-30T06:28:25;8.87;;;1.73;;
70369;SDS011;57790;51.356;-2.906;2024-01-30T06:31:25;9.77;;;1.55;;
70369;SDS011;57790;51.356;-2.906;2024-01-30T06:34:26;8.37;;;1.70;;
70369;SDS011;57790;51.356;-2.906;2024-01-30T06:37:26;6.00;;;1.47;;
70369;SDS011;57790;51.356;-2.906;2024-01-30T06:40:26;6.50;;;1.40;;
70369;SDS011;57790;51.356;-2.906;2024-01-30T06:43:27;9.60;;;1.67;;
70369;SDS011;57790;51.356;-2.906;2024-01-30T06:46:27;6.87;;;1.40;;
70369;SDS011;57790;51.356;-2.906;2024-01-30T06:49:28;6.37;;;1.43;;
70369;SDS011;57790;51.356;-2.906;2024-01-30T06:52:28;8.50;;;1.20;;
70369;SDS011;57790;51.356;-2.906;2024-01-30T06:55:28;6.87;;;1.40;;
70369;SDS011;57790;51.356;-2.906;2024-01-30T06:58:29;6.03;;;1.43;;
70369;SDS011;57790;51.356;-2.906;2024-01-30T07:01:29;8.47;;;1.40;;
70369;SDS011;57790;51.356;-2.906;2024-01-30T07:04:30;6.33;;;1.20;;
70369;SDS011;57790;51.356;-2.906;2024-01-30T07:07:31;6.60;;;1.30;;
70369;SDS011;57790;51.356;-2.906;2024-01-30T07:10:33;8.80;;;1.30;;
70369;SDS011;57790;51.356;-2.906;2024-01-30T07:13:34;7.70;;;1.77;;
70369;SDS011;57790;51.356;-2.906;2024-01-30T07:16:35;8.82;;;1.20;;
70369;SDS011;57790;51.356;-2.906;2024-01-30T07:19:36;5.47;;;0.90;;
70369;SDS011;57790;51.356;-2.906;2024-01-30T07:22:36;8.47;;;1.20;;
70369;SDS011;57790;51.356;-2.906;2024-01-30T07:25:37;9.43;;;1.40;;
70369;SDS011;57790;51.356;-2.906;2024-01-30T07:28:37;8.27;;;1.30;;
70369;SDS011;57790;51.356;-2.906;2024-01-30T07:31:38;7.43;;;1.48;;
70369;SDS011;57790;51.356;-2.906;2024-01-30T07:34:38;10.10;;;1.43;;
70369;SDS011;57790;51.356;-2.906;2024-01-30T07:37:39;5.80;;;1.43;;
70369;SDS011;57790;51.356;-2.906;2024-01-30T07:40:39;8.93;;;1.27;;
70369;SDS011;57790;51.356;-2.906;2024-01-30T07:43:42;7.40;;;1.58;;
70369;SDS011;57790;51.356;-2.906;2024-01-30T07:46:43;9.17;;;1.20;;
70369;SDS011;57790;51.356;-2.906;2024-01-30T07:49:44;8.37;;;1.07;;
70369;SDS011;57790;51.356;-2.906;2024-01-30T07:52:44;6.40;;;1.20;;
70369;SDS011;57790;51.356;-2.906;2024-01-30T07:55:45;4.90;;;1.10;;
70369;SDS011;57790;51.356;-2.906;2024-01-30T07:58:46;6.43;;;1.27;;
70369;SDS011;57790;51.356;-2.906;2024-01-30T08:01:47;5.70;;;1.20;;
70369;SDS011;57790;51.356;-2.906;2024-01-30T08:04:47;6.93;;;1.37;;
70369;SDS011;57790;51.356;-2.906;2024-01-30T08:07:49;6.85;;;1.30;;
70369;SDS011;57790;51.356;-2.906;2024-01-30T08:10:49;6.00;;;1.50;;
70369;SDS011;57790;51.356;-2.906;2024-01-30T08:13:50;9.50;;;1.20;;
70369;SDS011;57790;51.356;-2.906;2024-01-30T08:16:50;6.97;;;1.50;;
70369;SDS011;57790;51.356;-2.906;2024-01-30T08:19:51;8.57;;;1.45;;
70369;SDS011;57790;51.356;-2.906;2024-01-30T08:22:52;8.97;;;1.67;;
70369;SDS011;57790;51.356;-2.906;2024-01-30T08:25:52;5.00;;;1.00;;
70369;SDS011;57790;51.356;-2.906;2024-01-30T08:28:53;3.15;;;0.85;;
70369;SDS011;57790;51.356;-2.906;2024-01-30T08:31:53;7.13;;;1.20;;
70369;SDS011;57790;51.356;-2.906;2024-01-30T08:34:55;6.22;;;1.20;;
70369;SDS011;57790;51.356;-2.906;2024-01-30T08:37:56;5.87;;;1.20;;
70369;SDS011;57790;51.356;-2.906;2024-01-30T08:40:56;6.60;;;1.40;;
70369;SDS011;57790;51.356;-2.906;2024-01-30T08:43:56;6.63;;;1.20;;
70369;SDS011;57790;51.356;-2.906;2024-01-30T08:46:57;6.63;;;1.13;;
70369;SDS011;57790;51.356;-2.906;2024-01-30T08:49:57;5.40;;;1.03;;
70369;SDS011;57790;51.356;-2.906;2024-01-30T08:52:57;7.10;;;1.33;;
70369;SDS011;57790;51.356;-2.906;2024-01-30T08:55:58;7.43;;;1.20;;
70369;SDS011;57790;51.356;-2.906;2024-01-30T08:58:59;5.03;;;1.20;;
70369;SDS011;57790;51.356;-2.906;2024-01-30T09:01:59;6.47;;;1.47;;
70369;SDS011;57790;51.356;-2.906;2024-01-30T09:04:59;5.57;;;1.20;;
70369;SDS011;57790;51.356;-2.906;2024-01-30T09:08:00;8.50;;;1.50;;
70369;SDS011;57790;51.356;-2.906;2024-01-30T09:11:00;8.17;;;1.70;;
70369;SDS011;57790;51.356;-2.906;2024-01-30T09:14:01;10.43;;;1.87;;
70369;SDS011;57790;51.356;-2.906;2024-01-30T09:17:01;9.10;;;1.53;;
70369;SDS011;57790;51.356;-2.906;2024-01-30T09:20:03;6.80;;;1.45;;
70369;SDS011;57790;51.356;-2.906;2024-01-30T09:23:04;10.30;;;2.00;;
70369;SDS011;57790;51.356;-2.906;2024-01-30T09:26:05;8.23;;;1.37;;
70369;SDS011;57790;51.356;-2.906;2024-01-30T09:29:05;11.17;;;1.60;;
70369;SDS011;57790;51.356;-2.906;2024-01-30T09:32:05;5.43;;;1.23;;
70369;SDS011;57790;51.356;-2.906;2024-01-30T09:35:06;6.72;;;1.20;;
70369;SDS011;57790;51.356;-2.906;2024-01-30T09:38:07;4.43;;;1.20;;
70369;SDS011;57790;51.356;-2.906;2024-01-30T09:41:09;6.43;;;1.58;;
70369;SDS011;57790;51.356;-2.906;2024-01-30T09:44:11;10.07;;;1.60;;
70369;SDS011;57790;51.356;-2.906;2024-01-30T09:47:12;6.13;;;1.35;;
70369;SDS011;57790;51.356;-2.906;2024-01-30T09:50:14;5.20;;;1.13;;
70369;SDS011;57790;51.356;-2.906;2024-01-30T09:53:15;5.47;;;1.10;;
70369;SDS011;57790;51.356;-2.906;2024-01-30T09:56:16;4.28;;;1.20;;
70369;SDS011;57790;51.356;-2.906;2024-01-30T09:59:17;6.37;;;1.43;;
70369;SDS011;57790;51.356;-2.906;2024-01-30T10:02:17;7.97;;;1.03;;
70369;SDS011;57790;51.356;-2.906;2024-01-30T10:05:19;5.97;;;1.05;;
70369;SDS011;57790;51.356;-2.906;2024-01-30T10:08:20;6.57;;;1.10;;
70369;SDS011;57790;51.356;-2.906;2024-01-30T10:11:21;5.37;;;1.10;;
70369;SDS011;57790;51.356;-2.906;2024-01-30T10:14:22;7.03;;;1.20;;
70369;SDS011;57790;51.356;-2.906;2024-01-30T10:17:24;4.40;;;0.90;;
70369;SDS011;57790;51.356;-2.906;2024-01-30T10:20:25;4.97;;;1.15;;
70369;SDS011;57790;51.356;-2.906;2024-01-30T10:23:26;4.20;;;0.90;;
70369;SDS011;57790;51.356;-2.906;2024-01-30T10:26:26;7.27;;;1.10;;
70369;SDS011;57790;51.356;-2.906;2024-01-30T10:29:28;6.07;;;1.15;;
70369;SDS011;57790;51.356;-2.906;2024-01-30T10:32:29;8.68;;;1.17;;
70369;SDS011;57790;51.356;-2.906;2024-01-30T10:35:29;6.00;;;1.10;;
70369;SDS011;57790;51.356;-2.906;2024-01-30T10:38:30;5.23;;;1.00;;
70369;SDS011;57790;51.356;-2.906;2024-01-30T10:41:31;8.68;;;1.27;;
70369;SDS011;57790;51.356;-2.906;2024-01-30T10:48:05;5.43;;;0.90;;
70369;SDS011;57790;51.356;-2.906;2024-01-30T10:51:09;8.38;;;1.25;;
70369;SDS011;57790;51.356;-2.906;2024-01-30T10:54:11;5.25;;;1.27;;
70369;SDS011;57790;51.356;-2.906;2024-01-30T10:57:12;7.57;;;1.20;;
70369;SDS011;57790;51.356;-2.906;2024-01-30T11:00:15;8.07;;;1.20;;
70369;SDS011;57790;51.356;-2.906;2024-01-30T11:03:17;5.77;;;1.20;;
70369;SDS011;57790;51.356;-2.906;2024-01-30T11:06:18;7.22;;;1.13;;
70369;SDS011;57790;51.356;-2.906;2024-01-30T11:09:18;7.97;;;1.20;;
70369;SDS011;57790;51.356;-2.906;2024-01-30T11:12:23;5.67;;;1.50;;
70369;SDS011;57790;51.356;-2.906;2024-01-30T11:15:24;7.13;;;1.42;;
70369;SDS011;57790;51.356;-2.906;2024-01-30T11:18:25;7.60;;;1.20;;
70369;SDS011;57790;51.356;-2.906;2024-01-30T11:21:26;6.10;;;1.27;;
70369;SDS011;57790;51.356;-2.906;2024-01-30T11:24:27;4.70;;;1.20;;
70369;SDS011;57790;51.356;-2.906;2024-01-30T11:27:27;7.55;;;1.00;;
70369;SDS011;57790;51.356;-2.906;2024-01-30T11:30:29;7.67;;;1.10;;
70369;SDS011;57790;51.356;-2.906;2024-01-30T11:33:30;8.13;;;1.47;;
70369;SDS011;57790;51.356;-2.906;2024-01-30T11:36:31;6.88;;;1.08;;
70369;SDS011;57790;51.356;-2.906;2024-01-30T11:39:34;4.30;;;0.90;;
70369;SDS011;57790;51.356;-2.906;2024-01-30T11:42:36;5.00;;;1.00;;
70369;SDS011;57790;51.356;-2.906;2024-01-30T11:45:39;5.90;;;0.95;;
70369;SDS011;57790;51.356;-2.906;2024-01-30T11:48:40;7.70;;;0.90;;
70369;SDS011;57790;51.356;-2.906;2024-01-30T11:51:41;9.30;;;1.07;;
70369;SDS011;57790;51.356;-2.906;2024-01-30T11:54:42;6.80;;;0.82;;
70369;SDS011;57790;51.356;-2.906;2024-01-30T11:57:43;4.70;;;0.83;;
70369;SDS011;57790;51.356;-2.906;2024-01-30T12:00:52;8.02;;;1.10;;
70369;SDS011;57790;51.356;-2.906;2024-01-30T12:03:55;13.05;;;1.40;;
70369;SDS011;57790;51.356;-2.906;2024-01-30T12:06:57;8.20;;;1.10;;
70369;SDS011;57790;51.356;-2.906;2024-01-30T12:09:57;5.47;;;0.93;;
70369;SDS011;57790;51.356;-2.906;2024-01-30T12:12:57;6.63;;;1.20;;
70369;SDS011;57790;51.356;-2.906;2024-01-30T12:15:58;5.20;;;0.90;;
70369;SDS011;57790;51.356;-2.906;2024-01-30T12:19:00;7.53;;;1.00;;
70369;SDS011;57790;51.356;-2.906;2024-01-30T12:22:02;7.05;;;1.15;;
70369;SDS011;57790;51.356;-2.906;2024-01-30T12:25:03;6.93;;;1.30;;
70369;SDS011;57790;51.356;-2.906;2024-01-30T12:28:05;5.63;;;1.20;;
70369;SDS011;57790;51.356;-2.906;2024-01-30T12:31:05;5.43;;;0.87;;
70369;SDS011;57790;51.356;-2.906;2024-01-30T12:34:06;5.97;;;1.37;;
70369;SDS011;57790;51.356;-2.906;2024-01-30T12:37:06;5.60;;;1.00;;
70369;SDS011;57790;51.356;-2.906;2024-01-30T12:40:09;6.78;;;1.20;;
70369;SDS011;57790;51.356;-2.906;2024-01-30T12:43:10;7.40;;;1.30;;
70369;SDS011;57790;51.356;-2.906;2024-01-30T12:46:11;6.80;;;1.17;;
70369;SDS011;57790;51.356;-2.906;2024-01-30T12:49:11;4.97;;;1.00;;
70369;SDS011;57790;51.356;-2.906;2024-01-30T12:52:12;6.30;;;1.30;;
70369;SDS011;57790;51.356;-2.906;2024-01-30T12:55:14;4.72;;;1.00;;
70369;SDS011;57790;51.356;-2.906;2024-01-30T12:58:14;7.13;;;1.30;;
70369;SDS011;57790;51.356;-2.906;2024-01-30T13:01:15;4.93;;;1.10;;
70369;SDS011;57790;51.356;-2.906;2024-01-30T13:04:16;7.70;;;1.40;;
70369;SDS011;57790;51.356;-2.906;2024-01-30T13:07:16;7.13;;;1.30;;
70369;SDS011;57790;51.356;-2.906;2024-01-30T13:10:17;4.17;;;0.80;;
70369;SDS011;57790;51.356;-2.906;2024-01-30T13:13:17;4.97;;;1.00;;
70369;SDS011;57790;51.356;-2.906;2024-01-30T13:16:17;6.23;;;1.10;;
70369;SDS011;57790;51.356;-2.906;2024-01-30T13:19:18;6.60;;;1.17;;
70369;SDS011;57790;51.356;-2.906;2024-01-30T13:22:18;5.90;;;1.58;;
70369;SDS011;57790;51.356;-2.906;2024-01-30T13:25:21;4.95;;;1.05;;
70369;SDS011;57790;51.356;-2.906;2024-01-30T13:28:21;5.97;;;0.90;;
70369;SDS011;57790;51.356;-2.906;2024-01-30T13:31:22;6.60;;;1.20;;
70369;SDS011;57790;51.356;-2.906;2024-01-30T13:34:22;6.43;;;1.10;;
70369;SDS011;57790;51.356;-2.906;2024-01-30T13:37:23;5.87;;;1.20;;
70369;SDS011;57790;51.356;-2.906;2024-01-30T13:40:23;5.83;;;1.20;;
70369;SDS011;57790;51.356;-2.906;2024-01-30T13:43:23;7.60;;;1.10;;
70369;SDS011;57790;51.356;-2.906;2024-01-30T13:46:24;5.77;;;1.00;;
70369;SDS011;57790;51.356;-2.906;2024-01-30T13:49:24;8.97;;;1.23;;
70369;SDS011;57790;51.356;-2.906;2024-01-30T13:52:24;8.03;;;1.07;;
70369;SDS011;57790;51.356;-2.906;2024-01-30T13:55:25;7.37;;;1.20;;
70369;SDS011;57790;51.356;-2.906;2024-01-30T13:58:25;7.83;;;1.27;;
70369;SDS011;57790;51.356;-2.906;2024-01-30T14:01:26;8.30;;;1.27;;
70369;SDS011;57790;51.356;-2.906;2024-01-30T14:04:26;4.20;;;0.90;;
70369;SDS011;57790;51.356;-2.906;2024-01-30T14:07:26;4.87;;;1.00;;
70369;SDS011;57790;51.356;-2.906;2024-01-30T14:10:27;7.87;;;1.23;;
70369;SDS011;57790;51.356;-2.906;2024-01-30T14:13:27;4.50;;;0.80;;
70369;SDS011;57790;51.356;-2.906;2024-01-30T14:16:28;8.17;;;1.00;;
70369;SDS011;57790;51.356;-2.906;2024-01-30T14:19:28;4.07;;;0.80;;
70369;SDS011;57790;51.356;-2.906;2024-01-30T14:22:29;5.13;;;0.83;;
70369;SDS011;57790;51.356;-2.906;2024-01-30T14:25:29;5.40;;;0.90;;
70369;SDS011;57790;51.356;-2.906;2024-01-30T14:28:30;5.33;;;0.80;;
70369;SDS011;57790;51.356;-2.906;2024-01-30T14:31:30;6.67;;;0.90;;
70369;SDS011;57790;51.356;-2.906;2024-01-30T14:34:31;5.87;;;1.00;;
70369;SDS011;57790;51.356;-2.906;2024-01-30T14:37:31;4.63;;;0.90;;
70369;SDS011;57790;51.356;-2.906;2024-01-30T14:40:31;5.60;;;1.00;;
70369;SDS011;57790;51.356;-2.906;2024-01-30T14:43:32;6.50;;;0.70;;
70369;SDS011;57790;51.356;-2.906;2024-01-30T14:46:32;3.93;;;0.67;;
70369;SDS011;57790;51.356;-2.906;2024-01-30T14:49:33;3.63;;;0.90;;
70369;SDS011;57790;51.356;-2.906;2024-01-30T14:52:33;4.73;;;0.77;;
70369;SDS011;57790;51.356;-2.906;2024-01-30T14:55:35;6.70;;;1.10;;
70369;SDS011;57790;51.356;-2.906;2024-01-30T14:58:35;4.20;;;0.93;;
70369;SDS011;57790;51.356;-2.906;2024-01-30T15:01:37;3.72;;;0.77;;
70369;SDS011;57790;51.356;-2.906;2024-01-30T15:04:37;4.90;;;0.70;;
70369;SDS011;57790;51.356;-2.906;2024-01-30T15:07:38;5.95;;;0.70;;
70369;SDS011;57790;51.356;-2.906;2024-01-30T15:10:39;4.43;;;0.80;;
70369;SDS011;57790;51.356;-2.906;2024-01-30T15:13:40;5.10;;;0.70;;
70369;SDS011;57790;51.356;-2.906;2024-01-30T15:16:40;3.47;;;0.60;;
70369;SDS011;57790;51.356;-2.906;2024-01-30T15:19:40;4.80;;;0.73;;
70369;SDS011;57790;51.356;-2.906;2024-01-30T15:22:41;3.22;;;0.60;;
70369;SDS011;57790;51.356;-2.906;2024-01-30T15:25:42;5.60;;;0.70;;
70369;SDS011;57790;51.356;-2.906;2024-01-30T15:28:42;3.43;;;0.67;;
70369;SDS011;57790;51.356;-2.906;2024-01-30T15:31:43;3.42;;;0.70;;
70369;SDS011;57790;51.356;-2.906;2024-01-30T15:34:43;2.83;;;0.50;;
70369;SDS011;57790;51.356;-2.906;2024-01-30T15:37:43;3.37;;;0.50;;
70369;SDS011;57790;51.356;-2.906;2024-01-30T15:40:44;4.30;;;0.80;;
70369;SDS011;57790;51.356;-2.906;2024-01-30T15:43:44;3.53;;;0.83;;
70369;SDS011;57790;51.356;-2.906;2024-01-30T15:46:44;5.47;;;0.97;;
70369;SDS011;57790;51.356;-2.906;2024-01-30T15:49:45;5.13;;;0.68;;
70369;SDS011;57790;51.356;-2.906;2024-01-30T15:52:45;4.30;;;0.70;;
70369;SDS011;57790;51.356;-2.906;2024-01-30T15:55:46;4.17;;;0.80;;
70369;SDS011;57790;51.356;-2.906;2024-01-30T15:58:47;4.85;;;0.70;;
70369;SDS011;57790;51.356;-2.906;2024-01-30T16:01:49;5.07;;;0.70;;
70369;SDS011;57790;51.356;-2.906;2024-01-30T16:04:50;4.72;;;0.70;;
70369;SDS011;57790;51.356;-2.906;2024-01-30T16:07:50;4.60;;;0.60;;
70369;SDS011;57790;51.356;-2.906;2024-01-30T16:10:50;4.27;;;0.70;;
70369;SDS011;57790;51.356;-2.906;2024-01-30T16:13:51;6.83;;;0.70;;
70369;SDS011;57790;51.356;-2.906;2024-01-30T16:16:52;5.00;;;0.85;;
70369;SDS011;57790;51.356;-2.906;2024-01-30T16:19:52;5.27;;;0.80;;
70369;SDS011;57790;51.356;-2.906;2024-01-30T16:22:53;4.80;;;0.67;;
70369;SDS011;57790;51.356;-2.906;2024-01-30T16:25:55;5.35;;;0.80;;
70369;SDS011;57790;51.356;-2.906;2024-01-30T16:28:56;4.82;;;0.80;;
70369;SDS011;57790;51.356;-2.906;2024-01-30T16:31:56;4.60;;;0.60;;
70369;SDS011;57790;51.356;-2.906;2024-01-30T16:34:58;4.60;;;0.77;;
70369;SDS011;57790;51.356;-2.906;2024-01-30T16:37:58;4.17;;;1.07;;
70369;SDS011;57790;51.356;-2.906;2024-01-30T16:40:58;3.53;;;0.67;;
70369;SDS011;57790;51.356;-2.906;2024-01-30T16:43:59;4.47;;;1.00;;
70369;SDS011;57790;51.356;-2.906;2024-01-30T16:46:59;6.23;;;0.90;;
70369;SDS011;57790;51.356;-2.906;2024-01-30T16:50:00;6.67;;;0.77;;
70369;SDS011;57790;51.356;-2.906;2024-01-30T16:53:00;4.70;;;1.10;;
70369;SDS011;57790;51.356;-2.906;2024-01-30T16:56:01;4.50;;;1.00;;
70369;SDS011;57790;51.356;-2.906;2024-01-30T16:59:01;7.37;;;1.23;;
70369;SDS011;57790;51.356;-2.906;2024-01-30T17:02:01;4.85;;;0.90;;
70369;SDS011;57790;51.356;-2.906;2024-01-30T17:05:03;4.17;;;1.03;;
70369;SDS011;57790;51.356;-2.906;2024-01-30T17:08:04;5.20;;;0.90;;
70369;SDS011;57790;51.356;-2.906;2024-01-30T17:11:05;4.90;;;0.85;;
70369;SDS011;57790;51.356;-2.906;2024-01-30T17:14:05;6.67;;;0.80;;
70369;SDS011;57790;51.356;-2.906;2024-01-30T17:17:06;5.80;;;0.93;;
70369;SDS011;57790;51.356;-2.906;2024-01-30T17:20:07;4.47;;;0.80;;
70369;SDS011;57790;51.356;-2.906;2024-01-30T17:23:07;3.13;;;0.77;;
70369;SDS011;57790;51.356;-2.906;2024-01-30T17:26:10;5.18;;;0.90;;
70369;SDS011;57790;51.356;-2.906;2024-01-30T17:29:11;5.43;;;1.00;;
70369;SDS011;57790;51.356;-2.906;2024-01-30T17:32:12;3.35;;;0.68;;
70369;SDS011;57790;51.356;-2.906;2024-01-30T17:35:12;5.17;;;1.10;;
70369;SDS011;57790;51.356;-2.906;2024-01-30T17:38:12;3.63;;;0.90;;
70369;SDS011;57790;51.356;-2.906;2024-01-30T17:41:13;3.50;;;0.83;;
70369;SDS011;57790;51.356;-2.906;2024-01-30T17:44:13;4.57;;;0.97;;
70369;SDS011;57790;51.356;-2.906;2024-01-30T17:47:14;6.00;;;0.80;;
70369;SDS011;57790;51.356;-2.906;2024-01-30T17:50:16;5.47;;;1.07;;
70369;SDS011;57790;51.356;-2.906;2024-01-30T17:53:16;4.50;;;0.93;;
70369;SDS011;57790;51.356;-2.906;2024-01-30T17:56:17;5.30;;;0.80;;